Time;durP1;ratioP1;P1;durP2;ratioP2;P2;SDS_P1;SDS_P2;PMS_P1;PMS_P2;Temp;Humidity;BMP_temperature;BMP_pressure;BME280_temperature;BME280_humidity;BME280_pressure;Samples;Min_cycle;Max_cycle;Signal;HPM_P1;HPM_P2
2023/10/04 00:00:32;;;;;;;7.85;1.55;;;;;;;12.14;87.66;101559.66;4991695;28;20042;-49
2023/10/04 00:03:00;;;;;;;5.68;1.00;;;;;;;12.15;87.71;101550.19;4992815;28;20084;-50
2023/10/04 00:05:28;;;;;;;5.20;1.35;;;;;;;12.14;87.74;101548.56;4990698;28;20050;-46
2023/10/04 00:07:56;;;;;;;6.28;1.40;;;;;;;12.13;87.77;101541.38;4992894;28;20531;-46
2023/10/04 00:10:23;;;;;;;5.00;1.45;;;;;;;12.10;87.71;101539.25;4991907;28;20047;-46
2023/10/04 00:12:52;;;;;;;6.88;1.70;;;;;;;12.09;87.82;101548.75;4992884;28;20046;-46
2023/10/04 00:15:21;;;;;;;3.63;1.20;;;;;;;12.06;87.77;101541.09;4992554;28;20042;-46
2023/10/04 00:17:49;;;;;;;11.48;2.83;;;;;;;12.04;87.77;101535.06;4992235;28;20038;-46
2023/10/04 00:20:16;;;;;;;9.63;1.40;;;;;;;12.02;87.80;101551.25;4992748;28;20062;-49
2023/10/04 00:22:46;;;;;;;7.55;1.70;;;;;;;11.99;87.78;101549.13;4989619;28;20488;-47
2023/10/04 00:25:22;;;;;;;8.88;1.50;;;;;;;11.97;87.90;101549.47;4991966;28;20073;-47
2023/10/04 00:27:55;;;;;;;7.65;1.02;;;;;;;11.96;87.84;101558.13;4992128;28;20446;-46
2023/10/04 00:30:25;;;;;;;8.77;1.60;;;;;;;11.95;87.96;101553.72;4992283;28;20050;-52
2023/10/04 00:32:54;;;;;;;12.27;1.40;;;;;;;11.93;88.00;101559.63;4992691;28;20034;-47
2023/10/04 00:35:22;;;;;;;4.13;1.20;;;;;;;11.92;88.18;101546.06;4992327;28;20051;-48
2023/10/04 00:37:55;;;;;;;5.72;1.50;;;;;;;11.92;88.04;101548.84;4991966;28;20401;-48
2023/10/04 00:40:31;;;;;;;6.93;2.20;;;;;;;11.93;88.00;101548.50;4992530;28;20046;-55
2023/10/04 00:43:05;;;;;;;5.80;1.52;;;;;;;11.93;87.98;101547.69;4991825;28;20385;-46
2023/10/04 00:45:34;;;;;;;5.78;1.42;;;;;;;11.95;87.77;101545.41;4974455;28;20602;-48
2023/10/04 00:48:08;;;;;;;5.35;1.63;;;;;;;11.93;87.65;101548.50;4991396;28;20046;-46
2023/10/04 00:50:36;;;;;;;8.30;1.90;;;;;;;11.88;87.77;101545.13;4991754;28;20060;-47
2023/10/04 00:53:08;;;;;;;5.88;1.83;;;;;;;11.85;87.65;101552.16;4974024;28;20056;-51
2023/10/04 00:55:40;;;;;;;6.25;0.90;;;;;;;11.79;87.89;101547.09;4990737;28;20404;-47
2023/10/04 00:58:09;;;;;;;9.30;1.98;;;;;;;11.77;87.91;101543.84;4992528;28;20042;-47
2023/10/04 01:00:45;;;;;;;5.80;1.30;;;;;;;11.74;87.67;101558.41;4990586;28;20145;-46
2023/10/04 01:03:14;;;;;;;7.22;1.48;;;;;;;11.71;87.88;101545.19;4991161;28;20512;-47
2023/10/04 01:05:47;;;;;;;7.07;1.75;;;;;;;11.68;87.86;101545.81;4991050;28;20469;-47
2023/10/04 01:08:15;;;;;;;12.55;1.75;;;;;;;11.65;87.85;101541.75;4990439;28;20077;-46
2023/10/04 01:10:46;;;;;;;10.00;1.92;;;;;;;11.63;88.08;101539.31;4990776;28;20053;-46
2023/10/04 01:13:17;;;;;;;7.70;2.37;;;;;;;11.61;87.95;101529.72;4991398;28;20045;-48
2023/10/04 01:15:46;;;;;;;10.05;1.48;;;;;;;11.61;87.95;101535.25;4990519;28;20056;-47
2023/10/04 01:18:16;;;;;;;6.57;1.48;;;;;;;11.57;87.98;101521.22;4990973;28;20133;-48
2023/10/04 01:20:45;;;;;;;7.90;1.45;;;;;;;11.57;87.90;101517.63;4991058;28;20441;-49
2023/10/04 01:23:11;;;;;;;12.27;2.08;;;;;;;11.56;88.14;101521.56;4989658;28;20080;-47
2023/10/04 01:25:41;;;;;;;6.63;1.65;;;;;;;11.54;87.98;101507.25;4990495;28;20087;-47
2023/10/04 01:28:13;;;;;;;9.55;1.73;;;;;;;11.53;88.11;101511.16;4991067;28;20069;-46
2023/10/04 01:30:44;;;;;;;13.35;2.20;;;;;;;11.55;87.98;101509.66;4972778;28;20059;-48
2023/10/04 01:33:18;;;;;;;9.63;1.85;;;;;;;11.55;87.97;101511.63;4991586;28;20046;-48
2023/10/04 01:35:53;;;;;;;6.55;1.83;;;;;;;11.54;88.01;101507.25;4990491;28;20046;-46
2023/10/04 01:38:24;;;;;;;11.40;1.92;;;;;;;11.55;87.99;101498.56;4990109;28;20504;-47
2023/10/04 01:40:57;;;;;;;7.60;2.25;;;;;;;11.55;87.95;101506.06;4990506;28;20042;-46
2023/10/04 01:43:25;;;;;;;;;;;;;;;11.55;88.43;101503.28;4990980;28;20061;-47
2023/10/04 01:45:57;;;;;;;10.48;1.83;;;;;;;11.53;88.10;101500.06;4972055;28;19953;-46
2023/10/04 01:48:28;;;;;;;6.43;1.70;;;;;;;11.52;87.87;101488.13;4990886;28;20052;-47
2023/10/04 01:50:55;;;;;;;9.13;2.05;;;;;;;11.55;88.12;101497.75;4989371;28;20038;-46
2023/10/04 01:53:24;;;;;;;11.07;2.22;;;;;;;11.56;88.39;101483.56;4989681;28;20125;-51
2023/10/04 01:55:52;;;;;;;9.13;2.10;;;;;;;11.57;88.37;101484.34;4990458;28;20064;-49
2023/10/04 01:58:23;;;;;;;6.95;1.98;;;;;;;11.59;88.22;101487.63;4989667;28;20058;-47
2023/10/04 02:00:51;;;;;;;12.63;2.90;;;;;;;11.60;88.21;101484.50;4989206;28;20035;-46
2023/10/04 02:03:20;;;;;;;9.02;2.20;;;;;;;11.62;88.33;101492.50;4989004;28;20500;-46
2023/10/04 02:05:52;;;;;;;6.88;2.08;;;;;;;11.61;88.53;101494.47;4989334;28;20129;-50
2023/10/04 02:08:20;;;;;;;9.55;2.00;;;;;;;11.61;88.34;101497.25;4972326;28;20054;-48
2023/10/04 02:10:47;;;;;;;9.20;2.08;;;;;;;11.63;88.57;101488.56;4988304;28;20100;-46
2023/10/04 02:13:17;;;;;;;7.03;2.10;;;;;;;11.63;88.50;101478.31;4989550;28;20038;-46
2023/10/04 02:15:50;;;;;;;9.63;1.98;;;;;;;11.64;88.51;101473.56;4989265;28;20046;-48
2023/10/04 02:18:22;;;;;;;6.05;2.90;;;;;;;11.65;88.44;101485.50;4989962;28;20034;-46
2023/10/04 02:20:53;;;;;;;9.27;2.72;;;;;;;11.65;88.35;101491.03;4988672;28;20042;-48
2023/10/04 02:23:21;;;;;;;15.30;3.05;;;;;;;11.65;88.48;101489.06;4988112;28;20046;-49
2023/10/04 02:25:48;;;;;;;7.28;2.58;;;;;;;11.65;88.37;101496.59;4989116;28;20440;-50
2023/10/04 02:28:18;;;;;;;6.82;1.92;;;;;;;11.65;88.30;101496.59;4990031;28;20492;-47
2023/10/04 02:30:47;;;;;;;12.27;2.72;;;;;;;11.63;88.41;101478.31;4987956;28;20042;-48
2023/10/04 02:33:16;;;;;;;8.32;2.85;;;;;;;11.62;88.62;101493.31;4990119;28;20073;-47
2023/10/04 02:35:45;;;;;;;5.40;2.05;;;;;;;11.61;88.41;101475.06;4989714;28;20046;-46
2023/10/04 02:38:19;;;;;;;8.20;2.30;;;;;;;11.60;88.46;101473.41;4973320;28;20133;-46
2023/10/04 02:40:48;;;;;;;10.85;2.60;;;;;;;11.61;88.60;101463.97;4990209;28;20038;-47
2023/10/04 02:43:15;;;;;;;9.88;2.78;;;;;;;11.60;88.68;101478.97;4989187;28;20396;-49
2023/10/04 02:45:43;;;;;;;8.70;2.08;;;;;;;11.58;88.56;101481.28;4989548;28;20094;-46
2023/10/04 02:48:11;;;;;;;8.70;1.80;;;;;;;11.57;88.72;101484.34;4989584;28;20104;-47
2023/10/04 02:50:42;;;;;;;8.45;2.33;;;;;;;11.58;88.83;101481.28;4989550;28;20073;-46
2023/10/04 02:53:13;;;;;;;13.63;2.27;;;;;;;11.58;88.76;101477.69;4988499;28;20049;-47
2023/10/04 02:55:42;;;;;;;13.50;3.08;;;;;;;11.58;88.85;101469.34;4988950;28;20054;-46
2023/10/04 02:58:12;;;;;;;6.93;2.45;;;;;;;11.56;89.07;101475.25;4989914;28;20054;-48
2023/10/04 03:00:44;;;;;;;8.60;2.03;;;;;;;11.56;89.18;101461.38;5028873;23;20049;-54
2023/10/04 03:03:19;;;;;;;13.38;2.33;;;;;;;11.56;89.18;101471.66;4988380;28;20081;-47
2023/10/04 03:05:49;;;;;;;7.05;2.25;;;;;;;11.57;89.35;101476.84;5003331;28;20120;-46
2023/10/04 03:08:23;;;;;;;8.95;2.33;;;;;;;11.59;89.34;101482.09;4986362;28;20388;-51
2023/10/04 03:10:55;;;;;;;5.95;2.17;;;;;;;11.61;89.23;101475.06;4988205;28;20058;-48
2023/10/04 03:13:24;;;;;;;8.75;3.17;;;;;;;11.61;89.40;101471.47;4987914;28;20058;-46
2023/10/04 03:15:53;;;;;;;12.48;2.67;;;;;;;11.62;89.13;101454.47;4986532;28;20472;-47
2023/10/04 03:18:21;;;;;;;7.00;2.03;;;;;;;11.62;89.35;101462.78;4987235;28;20055;-47
2023/10/04 03:20:56;;;;;;;6.70;2.10;;;;;;;11.63;89.27;101452.53;4987932;28;20061;-47
2023/10/04 03:23:23;;;;;;;9.60;1.95;;;;;;;11.63;89.46;101456.13;4988782;28;20058;-46
2023/10/04 03:25:52;;;;;;;10.15;2.35;;;;;;;11.65;89.22;101453.00;4989599;28;20053;-46
2023/10/04 03:28:26;;;;;;;9.02;3.17;;;;;;;11.63;89.48;101450.56;4990267;28;20054;-48
2023/10/04 03:30:53;;;;;;;11.95;3.45;;;;;;;11.64;89.29;101456.94;4992224;28;20046;-46
2023/10/04 03:33:20;;;;;;;9.88;1.70;;;;;;;11.63;89.37;101438.66;4991233;28;20050;-47
2023/10/04 03:35:48;;;;;;;7.38;1.70;;;;;;;11.66;89.42;101442.72;4991972;28;20492;-47
2023/10/04 03:38:15;;;;;;;7.85;2.20;;;;;;;11.65;89.41;101441.09;4992366;28;20385;-48
2023/10/04 03:40:43;;;;;;;6.95;2.83;;;;;;;11.64;89.51;101431.97;4991799;28;20147;-46
2023/10/04 03:43:12;;;;;;;6.78;2.15;;;;;;;11.65;89.41;101435.56;4991549;28;20048;-46
2023/10/04 03:45:40;;;;;;;8.60;2.67;;;;;;;11.65;89.37;101435.56;4991618;28;20400;-46
2023/10/04 03:48:13;;;;;;;7.32;1.85;;;;;;;11.66;89.37;101426.88;4990948;28;20100;-47
2023/10/04 03:50:45;;;;;;;15.55;2.47;;;;;;;11.67;89.35;101422.16;4991945;28;20079;-47
2023/10/04 03:53:12;;;;;;;11.68;3.50;;;;;;;11.67;89.40;101419.38;4992068;28;20121;-46
2023/10/04 03:55:41;;;;;;;12.60;2.63;;;;;;;11.67;89.33;101416.63;4991519;28;20042;-47
2023/10/04 03:58:09;;;;;;;8.35;3.33;;;;;;;11.68;89.31;101418.22;4990613;28;20034;-48
2023/10/04 04:00:37;;;;;;;8.00;2.10;;;;;;;11.68;89.30;101421.81;4991941;28;20054;-47
2023/10/04 04:03:04;;;;;;;9.48;2.25;;;;;;;11.68;89.28;101419.03;4972427;28;20054;-48
2023/10/04 04:05:32;;;;;;;12.95;3.28;;;;;;;11.69;89.36;101419.88;4970349;28;20050;-51
2023/10/04 04:07:59;;;;;;;9.05;2.47;;;;;;;11.70;89.53;101422.34;4971976;28;20417;-48
2023/10/04 04:10:26;;;;;;;10.88;2.58;;;;;;;11.71;89.54;101417.59;4972380;28;20074;-47
2023/10/04 04:12:54;;;;;;;7.50;2.70;;;;;;;11.73;89.32;101420.84;4952245;28;20050;-50
2023/10/04 04:15:23;;;;;;;6.53;2.35;;;;;;;11.73;89.51;101412.53;4970753;28;20053;-46
2023/10/04 04:17:50;;;;;;;11.73;3.00;;;;;;;11.73;89.37;101405.00;4970887;28;20129;-46
2023/10/04 04:20:19;;;;;;;14.68;3.00;;;;;;;11.72;89.41;101405.34;4970005;28;20132;-47
2023/10/04 04:22:56;;;;;;;11.82;3.50;;;;;;;11.72;89.50;101400.63;4971311;28;20141;-47
2023/10/04 04:25:24;;;;;;;10.35;3.65;;;;;;;11.73;89.83;101404.22;4971005;28;20054;-46
2023/10/04 04:27:53;;;;;;;10.85;3.03;;;;;;;11.73;89.70;101395.91;4971814;28;20055;-47
2023/10/04 04:30:31;;;;;;;15.57;4.43;;;;;;;11.74;89.71;101394.72;4969496;28;20047;-48
2023/10/04 04:33:02;;;;;;;10.05;2.10;;;;;;;11.74;89.60;101390.00;4970806;28;20046;-48
2023/10/04 04:37:57;;;;;;;11.95;2.50;;;;;;;11.73;89.61;101380.03;4970420;28;20053;-47
2023/10/04 04:40:30;;;;;;;12.13;2.40;;;;;;;11.73;89.75;101387.56;4972780;28;20046;-47
2023/10/04 04:43:18;;;;;;;13.57;2.72;;;;;;;11.72;89.92;101374.84;4972571;28;20055;-49
2023/10/04 04:45:50;;;;;;;6.15;2.13;;;;;;;11.73;89.91;101382.03;4971684;28;20043;-46
2023/10/04 04:48:19;;;;;;;6.88;2.13;;;;;;;11.71;89.89;101374.03;4972576;28;20046;-46
2023/10/04 04:50:48;;;;;;;9.20;2.75;;;;;;;11.71;89.80;101374.03;4971812;28;20699;-47
2023/10/04 04:53:18;;;;;;;9.05;2.28;;;;;;;11.72;90.00;101383.97;4971979;28;20042;-47
2023/10/04 04:55:45;;;;;;;10.43;2.65;;;;;;;11.72;90.15;101381.22;4972317;28;20934;-47
2023/10/04 04:58:14;;;;;;;11.10;3.20;;;;;;;11.73;90.34;101384.78;4971776;28;20514;-46
2023/10/04 05:00:44;;;;;;;9.05;2.53;;;;;;;11.73;90.14;101382.03;4972588;28;20047;-49
2023/10/04 05:03:12;;;;;;;9.30;2.42;;;;;;;11.73;90.18;101382.03;4972179;28;20493;-46
2023/10/04 05:05:40;;;;;;;12.30;3.10;;;;;;;11.74;90.25;101369.75;4970482;28;20046;-47
2023/10/04 05:08:08;;;;;;;9.40;2.28;;;;;;;11.74;90.27;101380.84;4980979;28;20051;-46
2023/10/04 05:10:38;;;;;;;10.18;2.60;;;;;;;11.72;90.30;101370.09;4971919;28;20113;-47
2023/10/04 05:13:13;;;;;;;9.63;2.42;;;;;;;11.72;90.49;101385.94;4972338;28;20058;-49
2023/10/04 05:15:42;;;;;;;6.72;2.30;;;;;;;11.72;90.56;101381.22;4971175;28;20043;-46
2023/10/04 05:18:16;;;;;;;9.65;2.53;;;;;;;11.72;90.52;101374.84;4971866;28;20047;-46
2023/10/04 05:20:50;;;;;;;13.15;2.42;;;;;;;11.72;90.45;101370.09;4971984;28;20049;-48
2023/10/04 05:23:18;;;;;;;10.85;2.97;;;;;;;11.72;90.64;101374.84;4970234;28;20043;-47
2023/10/04 05:25:52;;;;;;;7.80;2.57;;;;;;;11.71;90.37;101375.97;4971016;28;20055;-47
2023/10/04 05:28:20;;;;;;;6.93;2.63;;;;;;;11.71;90.58;101374.03;4970376;28;20307;-46
2023/10/04 05:30:47;;;;;;;9.75;2.42;;;;;;;11.71;90.62;101356.56;4970982;28;20039;-46
2023/10/04 05:33:20;;;;;;;7.78;2.53;;;;;;;11.69;90.72;101365.22;4970015;28;20047;-48
2023/10/04 05:35:52;;;;;;;9.02;3.42;;;;;;;11.68;90.55;101369.13;4983505;28;20046;-46
2023/10/04 05:38:23;;;;;;;10.90;2.55;;;;;;;11.68;90.57;101359.97;4969459;28;20049;-46
2023/10/04 05:40:50;;;;;;;8.32;2.10;;;;;;;11.67;90.76;101363.91;4970742;28;20051;-46
2023/10/04 05:43:18;;;;;;;13.52;2.95;;;;;;;11.67;90.77;101352.81;4970686;28;20408;-48
2023/10/04 05:45:47;;;;;;;11.23;2.85;;;;;;;11.66;90.81;101360.31;4970589;28;20035;-47
2023/10/04 05:48:19;;;;;;;13.45;3.58;;;;;;;11.66;90.86;101359.50;4953388;28;20408;-49
2023/10/04 05:50:50;;;;;;;11.27;2.88;;;;;;;11.65;90.92;101361.47;4969380;28;20051;-46
2023/10/04 05:53:20;;;;;;;14.82;3.10;;;;;;;11.65;90.89;101363.44;4969374;28;20507;-46
2023/10/04 05:55:48;;;;;;;10.80;2.92;;;;;;;11.65;90.94;101366.22;4971220;28;20053;-46
2023/10/04 05:58:17;;;;;;;7.78;2.92;;;;;;;11.65;91.02;101369.78;4969116;28;20161;-46
2023/10/04 06:00:51;;;;;;;14.57;3.95;;;;;;;11.65;91.04;101369.78;4970500;28;20062;-47
2023/10/04 06:03:20;;;;;;;13.43;5.00;;;;;;;11.63;91.10;101361.00;4969472;28;20067;-47
2023/10/04 06:05:47;;;;;;;12.57;2.45;;;;;;;11.65;90.97;101358.69;4970885;28;20142;-47
2023/10/04 06:08:21;;;;;;;7.93;3.75;;;;;;;11.65;91.01;101357.91;4968947;28;20564;-47
2023/10/04 06:10:53;;;;;;;15.23;3.42;;;;;;;11.63;91.15;101361.81;4970248;28;20047;-46
2023/10/04 06:13:25;;;;;;;15.23;4.80;;;;;;;11.66;91.31;101351.19;4969980;28;20047;-47
2023/10/04 06:15:55;;;;;;;7.60;2.50;;;;;;;11.66;91.27;101351.19;4970231;28;20039;-47
2023/10/04 06:18:28;;;;;;;10.68;4.25;;;;;;;11.66;91.41;101365.06;4970058;28;20089;-47
2023/10/04 06:20:57;;;;;;;11.20;3.58;;;;;;;11.67;91.47;101341.72;4970674;28;20073;-46
2023/10/04 06:23:25;;;;;;;10.98;3.17;;;;;;;11.68;91.46;101352.47;4970080;28;20580;-47
2023/10/04 06:25:52;;;;;;;10.82;2.67;;;;;;;11.68;91.70;101352.47;4970379;28;20038;-48
2023/10/04 06:28:19;;;;;;;9.23;3.25;;;;;;;11.71;91.36;101345.47;4969320;28;20453;-46
2023/10/04 06:30:50;;;;;;;9.32;3.08;;;;;;;11.71;91.88;101348.25;4966586;28;20059;-48
2023/10/04 06:33:17;;;;;;;11.05;3.60;;;;;;;11.73;91.77;101348.72;4968340;28;20515;-47
2023/10/04 06:35:44;;;;;;;11.55;2.95;;;;;;;11.75;91.76;101360.28;4967615;28;20441;-47
2023/10/04 06:38:14;;;;;;;15.23;3.08;;;;;;;11.75;91.75;101363.88;4970164;28;20062;-46
2023/10/04 06:40:42;;;;;;;13.35;4.45;;;;;;;11.78;91.92;101348.53;4968473;28;20038;-48
2023/10/04 06:43:10;;;;;;;14.63;3.42;;;;;;;11.80;91.89;101354.53;4966766;28;20049;-50
2023/10/04 06:45:41;;;;;;;15.88;4.13;;;;;;;11.83;91.92;101362.19;4970870;28;20714;-47
2023/10/04 06:48:08;;;;;;;12.07;3.13;;;;;;;11.84;91.99;101344.38;4970070;28;20053;-47
2023/10/04 06:50:38;;;;;;;15.77;3.08;;;;;;;11.86;92.03;101350.44;4968503;28;20053;-46
2023/10/04 06:53:09;;;;;;;12.23;2.85;;;;;;;11.89;91.93;101358.03;4970041;28;20098;-47
2023/10/04 06:55:37;;;;;;;15.82;3.10;;;;;;;11.91;92.07;101350.22;4971093;28;20518;-48
2023/10/04 06:58:06;;;;;;;9.18;3.45;;;;;;;11.93;92.03;101361.78;4970222;28;20074;-47
2023/10/04 07:00:36;;;;;;;6.18;2.50;;;;;;;11.96;92.19;101363.88;4968425;28;20051;-46
2023/10/04 07:03:05;;;;;;;11.52;4.25;;;;;;;11.97;92.33;101354.38;4970236;28;20070;-49
2023/10/04 07:05:40;;;;;;;6.68;2.92;;;;;;;12.01;92.18;101355.34;4968411;28;20070;-53
2023/10/04 07:08:12;;;;;;;12.15;3.38;;;;;;;12.04;92.29;101351.91;4970065;28;20042;-46
2023/10/04 07:10:41;;;;;;;10.07;3.10;;;;;;;12.04;92.26;101352.72;4969917;28;20101;-45
2023/10/04 07:13:09;;;;;;;9.13;2.67;;;;;;;12.07;92.26;101354.00;4970516;28;20050;-46
2023/10/04 07:15:38;;;;;;;13.00;3.10;;;;;;;12.07;92.10;101356.78;4966872;28;20055;-45
2023/10/04 07:18:10;;;;;;;15.55;3.17;;;;;;;12.07;92.16;101362.31;4968014;28;20417;-45
2023/10/04 07:20:38;;;;;;;19.88;3.65;;;;;;;12.06;92.11;101357.91;4965076;28;20133;-47
2023/10/04 07:23:11;;;;;;;10.80;4.07;;;;;;;12.07;92.36;101359.53;4965240;28;20046;-47
2023/10/04 07:25:49;;;;;;;8.23;2.97;;;;;;;12.08;92.28;101355.59;4966887;28;20046;-47
2023/10/04 07:28:17;;;;;;;11.32;2.67;;;;;;;12.09;92.33;101379.44;4966966;28;20050;-48
2023/10/04 07:30:44;;;;;;;11.68;3.47;;;;;;;12.10;92.24;101370.75;4965495;28;20065;-48
2023/10/04 07:33:11;;;;;;;5.85;2.10;;;;;;;12.11;92.41;101368.81;4949770;28;20157;-48
2023/10/04 07:35:38;;;;;;;8.43;2.67;;;;;;;12.13;92.36;101375.63;4969266;28;20057;-48
2023/10/04 07:38:05;;;;;;;10.93;2.65;;;;;;;12.15;92.24;101361.44;4967472;28;20046;-48
2023/10/04 07:40:34;;;;;;;12.45;2.58;;;;;;;12.16;92.24;101363.03;4969063;28;20121;-47
2023/10/04 07:43:01;;;;;;;11.68;4.20;;;;;;;12.19;92.07;101367.91;4968410;28;20078;-43
2023/10/04 07:45:30;;;;;;;9.43;2.40;;;;;;;12.20;92.15;101364.00;4950964;28;20066;-45
2023/10/04 07:48:00;;;;;;;5.72;2.05;;;;;;;12.23;92.17;101371.66;4967745;28;20043;-46
2023/10/04 07:50:28;;;;;;;8.95;2.47;;;;;;;12.26;91.95;101367.38;4967976;28;20121;-46
2023/10/04 07:52:58;;;;;;;14.77;2.08;;;;;;;12.29;91.79;101378.59;4967147;28;20138;-46
2023/10/04 07:55:26;;;;;;;8.13;1.92;;;;;;;12.32;91.72;101372.34;4967809;28;20053;-48
2023/10/04 07:58:03;;;;;;;4.68;2.08;;;;;;;12.34;91.85;101363.69;4960651;28;20414;-50
2023/10/04 08:00:36;;;;;;;12.05;2.83;;;;;;;12.38;91.14;101375.72;4962133;28;20046;-44
2023/10/04 08:03:06;;;;;;;11.20;2.17;;;;;;;12.42;91.51;101377.47;4967051;28;20050;-45
2023/10/04 08:05:35;;;;;;;8.50;2.15;;;;;;;12.46;91.24;101372.88;4946544;28;20051;-47
2023/10/04 08:08:05;;;;;;;12.48;2.20;;;;;;;12.52;91.00;101370.69;4966329;28;20073;-46
2023/10/04 08:10:35;;;;;;;6.55;2.38;;;;;;;12.58;90.89;101367.34;4967850;28;20513;-45
2023/10/04 08:13:04;;;;;;;7.60;3.05;;;;;;;12.62;90.60;101373.03;4968743;28;20083;-46
2023/10/04 08:15:35;;;;;;;9.07;2.55;;;;;;;12.65;90.59;101370.38;4972077;28;20082;-48
2023/10/04 08:18:03;;;;;;;12.55;3.85;;;;;;;12.70;90.47;101377.69;4972890;28;20078;-45
2023/10/04 08:20:32;;;;;;;10.60;3.05;;;;;;;12.74;90.59;101378.59;4971819;28;20047;-44
2023/10/04 08:23:04;;;;;;;9.55;2.40;;;;;;;12.79;90.77;101393.09;4961844;28;20054;-50
2023/10/04 08:25:32;;;;;;;8.13;2.80;;;;;;;12.86;90.51;101391.72;4938617;28;20046;-48
2023/10/04 08:28:00;;;;;;;6.45;2.45;;;;;;;12.92;90.16;101384.78;4948125;28;20186;-45
2023/10/04 08:30:30;;;;;;;10.00;2.28;;;;;;;12.97;90.13;101381.78;4972364;28;20063;-47
2023/10/04 08:32:59;;;;;;;8.52;3.08;;;;;;;13.01;89.95;101388.25;4969990;28;20527;-47
2023/10/04 08:35:28;;;;;;;10.35;2.28;;;;;;;13.05;89.74;101389.19;4972505;28;20065;-49
2023/10/04 08:37:58;;;;;;;9.95;2.30;;;;;;;13.08;89.84;101385.75;4972785;28;20094;-46
2023/10/04 08:40:27;;;;;;;6.75;2.10;;;;;;;13.09;89.39;101376.25;4972168;28;20146;-47
2023/10/04 08:42:58;;;;;;;4.95;1.75;;;;;;;13.08;89.31;101389.34;4969035;28;20051;-46
2023/10/04 08:45:29;;;;;;;6.90;1.95;;;;;;;13.09;89.32;101390.16;4964842;28;20157;-48
2023/10/04 08:47:57;;;;;;;6.82;1.88;;;;;;;13.08;89.06;101391.31;4967343;28;20042;-45
2023/10/04 08:50:45;;;;;;;9.45;3.33;;;;;;;13.07;89.11;101398.84;4987045;28;20047;-45
2023/10/04 08:53:25;;;;;;;9.07;2.15;;;;;;;13.06;88.92;101388.84;4971519;28;20054;-49
2023/10/04 08:56:02;;;;;;;9.70;2.40;;;;;;;13.06;88.87;101402.75;4968814;28;20042;-48
2023/10/04 08:58:31;;;;;;;6.75;1.63;;;;;;;13.04;88.72;101379.22;4954597;28;20516;-47
2023/10/04 09:01:01;;;;;;;7.57;1.90;;;;;;;13.04;88.57;101376.44;4969900;28;20063;-47
2023/10/04 09:03:31;;;;;;;6.07;1.80;;;;;;;13.02;88.24;101376.00;4969383;28;20444;-49
2023/10/04 09:05:59;;;;;;;6.43;1.75;;;;;;;13.03;88.18;101380.38;4954279;28;20078;-48
2023/10/04 09:08:28;;;;;;;6.05;1.70;;;;;;;13.03;88.29;101366.47;4944797;28;22064;-51
2023/10/04 09:10:55;;;;;;;5.88;1.52;;;;;;;13.02;87.96;101362.91;4932477;28;20074;-47
2023/10/04 09:13:23;;;;;;;6.43;1.77;;;;;;;13.05;88.15;101372.53;4935277;28;20051;-49
2023/10/04 09:15:50;;;;;;;8.10;2.05;;;;;;;13.09;87.91;101373.47;4955415;28;20043;-45
2023/10/04 09:18:27;;;;;;;8.85;1.92;;;;;;;13.13;87.77;101377.19;4968983;28;20078;-46
2023/10/04 09:20:54;;;;;;;9.23;1.50;;;;;;;13.19;87.46;101384.13;4949277;28;20042;-49
2023/10/04 09:23:23;;;;;;;7.35;2.10;;;;;;;13.28;87.36;101388.44;4970723;28;20508;-46
2023/10/04 09:25:55;;;;;;;6.15;1.50;;;;;;;13.37;87.22;101383.53;4971215;28;20489;-48
2023/10/04 09:28:40;;;;;;;8.73;1.92;;;;;;;13.51;86.87;101385.97;4972101;28;20042;-46
2023/10/04 09:31:12;;;;;;;10.60;2.13;;;;;;;13.62;86.54;101392.69;4970095;28;20522;-45
2023/10/04 09:33:40;;;;;;;7.07;2.03;;;;;;;13.72;86.53;101391.38;4967398;28;20042;-49
2023/10/04 09:36:10;;;;;;;5.32;1.65;;;;;;;13.84;86.37;101397.75;4970442;28;20400;-46
2023/10/04 09:38:39;;;;;;;7.15;2.20;;;;;;;13.94;86.02;101394.47;4971071;28;20042;-45
2023/10/04 09:41:09;;;;;;;10.75;1.73;;;;;;;14.04;85.73;101387.59;4968109;28;20059;-50
2023/10/04 09:43:39;;;;;;;4.30;1.42;;;;;;;14.13;85.70;101379.91;4969720;28;20047;-47
2023/10/04 09:46:09;;;;;;;8.60;1.95;;;;;;;14.21;85.44;101392.88;4951224;28;20058;-50
2023/10/04 09:48:43;;;;;;;9.90;2.30;;;;;;;14.24;85.03;101385.78;4941226;28;20086;-50
2023/10/04 09:51:11;;;;;;;6.20;2.05;;;;;;;14.29;84.84;101388.31;4969503;28;20137;-48
2023/10/04 09:53:40;;;;;;;7.82;1.88;;;;;;;14.33;84.71;101380.91;4970128;28;20054;-45
2023/10/04 09:56:12;;;;;;;11.38;1.77;;;;;;;14.38;84.58;101358.34;4970865;28;20054;-51
2023/10/04 09:58:51;;;;;;;7.85;2.30;;;;;;;14.42;84.37;101364.84;4955912;28;20046;-51
2023/10/04 10:01:19;;;;;;;13.80;2.08;;;;;;;14.48;84.43;101371.78;4930469;28;20055;-51
2023/10/04 10:03:56;;;;;;;8.30;2.28;;;;;;;14.55;84.00;101374.75;4967428;28;20065;-50
2023/10/04 10:06:26;;;;;;;6.78;2.15;;;;;;;14.58;83.62;101374.06;4968694;28;20054;-49
2023/10/04 10:09:05;;;;;;;8.50;1.70;;;;;;;14.59;83.28;101365.31;4941930;28;20047;-51
2023/10/04 10:11:34;;;;;;;6.43;1.33;;;;;;;14.63;83.15;101376.56;4934010;28;20050;-55
2023/10/04 10:14:03;;;;;;;6.97;2.95;;;;;;;14.71;83.04;101372.81;4929538;28;20053;-50
2023/10/04 10:16:33;;;;;;;9.43;1.75;;;;;;;14.80;82.52;101376.22;4931560;28;20057;-50
2023/10/04 10:19:03;;;;;;;7.65;1.42;;;;;;;14.88;82.13;101364.09;4936889;28;20159;-50
2023/10/04 10:22:03;;;;;;;5.63;1.48;;;;;;;14.94;81.97;101350.69;4933699;28;21112;-48
2023/10/04 10:24:32;;;;;;;5.47;1.83;;;;;;;15.01;81.74;101356.47;4923974;28;20146;-50
2023/10/04 10:27:19;;;;;;;9.93;1.98;;;;;;;15.09;81.67;101359.06;4930037;28;20039;-49
2023/10/04 10:29:50;;;;;;;9.02;1.80;;;;;;;15.16;81.89;101359.25;4931201;28;20058;-51
2023/10/04 10:32:22;;;;;;;7.60;1.60;;;;;;;15.23;82.09;101362.19;4930091;28;20043;-56
2023/10/04 10:34:51;;;;;;;5.00;1.42;;;;;;;15.42;82.08;101355.06;4930968;28;20047;-48
2023/10/04 10:37:24;;;;;;;8.57;2.45;;;;;;;15.93;80.76;101367.81;4964752;28;20046;-47
2023/10/04 10:39:53;;;;;;;8.45;2.08;;;;;;;16.68;78.04;101365.34;4966743;28;20047;-45
2023/10/04 10:42:20;;;;;;;10.88;1.77;;;;;;;17.54;74.94;101372.03;4969415;28;20086;-47
2023/10/04 10:44:50;;;;;;;7.95;2.33;;;;;;;18.11;72.15;101378.41;4969243;28;20066;-45
2023/10/04 10:47:22;;;;;;;12.60;3.25;;;;;;;18.36;70.56;101371.13;4968018;28;20150;-46
2023/10/04 10:49:56;;;;;;;;;;;;;;;18.07;71.18;101370.00;4970164;28;20043;-45
2023/10/04 10:52:24;;;;;;;5.70;2.25;;;;;;;17.80;71.74;101370.41;4969702;28;19980;-48
2023/10/04 10:54:56;;;;;;;8.50;2.05;;;;;;;17.53;71.94;101352.81;4967014;28;20049;-52
2023/10/04 10:57:30;;;;;;;8.02;2.20;;;;;;;17.54;72.33;101340.44;4968194;28;20543;-47
2023/10/04 11:00:03;;;;;;;6.38;1.98;;;;;;;17.67;71.34;101353.03;4968258;28;20137;-46
2023/10/04 11:02:30;;;;;;;12.48;2.13;;;;;;;17.68;71.40;101345.44;4969625;28;20054;-50
2023/10/04 11:04:58;;;;;;;8.75;1.77;;;;;;;17.57;71.28;101345.28;4969302;28;20043;-46
2023/10/04 11:07:26;;;;;;;6.57;2.10;;;;;;;17.26;71.61;101351.97;4969563;28;20069;-46
2023/10/04 11:09:54;;;;;;;5.50;1.70;;;;;;;16.98;72.08;101341.13;4969444;28;20097;-46
2023/10/04 11:12:25;;;;;;;9.48;1.67;;;;;;;16.81;72.80;101347.22;4968245;28;20063;-45
2023/10/04 11:14:53;;;;;;;6.72;1.98;;;;;;;16.81;73.10;101340.84;4935187;28;20393;-49
2023/10/04 11:17:22;;;;;;;9.82;2.10;;;;;;;16.74;72.97;101335.09;4968741;28;20078;-48
2023/10/04 11:19:52;;;;;;;10.45;2.25;;;;;;;16.70;72.86;101328.66;4967850;28;20039;-47
2023/10/04 11:22:19;;;;;;;9.45;2.17;;;;;;;16.70;73.02;101329.47;4967573;28;20075;-47
2023/10/04 11:24:47;;;;;;;5.20;2.22;;;;;;;16.68;72.83;101325.44;4967623;28;20049;-46
2023/10/04 11:27:20;;;;;;;5.88;2.08;;;;;;;16.70;72.97;101321.06;4967303;28;20083;-47
2023/10/04 11:29:49;;;;;;;9.35;2.13;;;;;;;16.70;72.92;101325.84;4964823;28;20046;-46
2023/10/04 11:32:17;;;;;;;6.28;2.72;;;;;;;16.71;72.81;101328.25;4964641;28;20061;-45
2023/10/04 11:34:45;;;;;;;7.50;1.60;;;;;;;16.69;72.39;101330.63;4967734;28;20043;-47
2023/10/04 11:37:13;;;;;;;5.55;1.45;;;;;;;16.70;72.32;101331.44;4967199;28;20042;-46